createdAt,value
2018-04-09T00:00:02.183Z,15.50
2018-04-09T00:02:29.590Z,15.42
2018-04-09T00:04:56.987Z,15.50
2018-04-09T00:07:24.403Z,15.44
2018-04-09T00:09:51.798Z,15.29
2018-04-09T00:12:19.198Z,15.32
2018-04-09T00:14:46.595Z,15.44
2018-04-09T00:17:13.978Z,15.50
2018-04-09T00:19:41.378Z,15.56
2018-04-09T00:22:08.762Z,15.70
2018-04-09T00:24:36.160Z,15.77
2018-04-09T00:27:03.557Z,15.56
2018-04-09T00:29:30.955Z,15.37
2018-04-09T00:31:58.419Z,15.20
2018-04-09T00:34:25.810Z,15.15
2018-04-09T00:36:53.206Z,14.99
2018-04-09T00:39:20.619Z,14.75
2018-04-09T00:41:48.006Z,14.78
2018-04-09T00:44:15.494Z,14.83
2018-04-09T00:46:42.902Z,14.79
2018-04-09T00:49:10.303Z,14.72
2018-04-09T00:51:37.692Z,14.81
2018-04-09T00:54:05.151Z,14.79
2018-04-09T00:56:32.539Z,14.72
2018-04-09T00:59:00.004Z,14.71
2018-04-09T01:01:27.406Z,14.70
2018-04-09T01:03:54.797Z,14.70
2018-04-09T01:06:22.203Z,14.54
2018-04-09T01:08:49.592Z,14.52
2018-04-09T01:11:17.070Z,14.48
2018-04-09T01:13:44.526Z,14.57
2018-04-09T01:16:11.935Z,14.67
2018-04-09T01:18:39.342Z,14.65
2018-04-09T01:21:06.736Z,14.64
2018-04-09T01:23:34.123Z,14.66
2018-04-09T01:26:01.522Z,14.47
2018-04-09T01:28:28.914Z,14.28
2018-04-09T01:30:56.426Z,14.16
2018-04-09T01:33:23.830Z,13.90
2018-04-09T01:35:51.232Z,13.96
2018-04-09T01:38:18.690Z,13.95
2018-04-09T01:40:46.091Z,13.88
2018-04-09T01:43:13.480Z,13.90
2018-04-09T01:45:40.878Z,13.95
2018-04-09T01:48:08.366Z,13.87
2018-04-09T01:50:35.759Z,13.77
2018-04-09T01:53:03.199Z,13.85
2018-04-09T01:55:30.612Z,13.79
2018-04-09T01:57:58.007Z,13.88
2018-04-09T02:00:25.410Z,13.78
2018-04-09T02:02:52.798Z,13.70
2018-04-09T02:05:20.194Z,13.69
2018-04-09T02:07:47.685Z,13.78
2018-04-09T02:10:15.094Z,13.64
2018-04-09T02:12:42.496Z,13.58
2018-04-09T02:15:09.909Z,13.50
2018-04-09T02:17:37.282Z,13.54
2018-04-09T02:20:04.755Z,13.60
2018-04-09T02:22:32.211Z,13.53
2018-04-09T02:24:59.610Z,13.48
2018-04-09T02:27:26.994Z,13.37
2018-04-09T02:29:54.395Z,13.48
2018-04-09T02:32:21.843Z,13.39
2018-04-09T02:34:49.246Z,13.33
2018-04-09T02:37:16.638Z,13.07
2018-04-09T02:39:44.032Z,12.97
2018-04-09T02:42:11.422Z,12.94
2018-04-09T02:44:38.923Z,12.96
2018-04-09T02:47:06.315Z,13.15
2018-04-09T02:49:33.745Z,13.14
2018-04-09T02:52:01.198Z,13.15
2018-04-09T02:54:28.659Z,13.21
2018-04-09T02:56:56.065Z,13.25
2018-04-09T02:59:23.452Z,13.37
2018-04-09T03:01:50.883Z,13.47
2018-04-09T03:04:18.271Z,13.40
2018-04-09T03:06:45.676Z,13.46
2018-04-09T03:09:13.067Z,13.49
2018-04-09T03:11:40.546Z,13.47
2018-04-09T03:14:07.934Z,13.39
2018-04-09T03:16:35.332Z,13.38
2018-04-09T03:19:02.718Z,13.36
2018-04-09T03:21:30.115Z,13.37
2018-04-09T03:23:57.511Z,13.26
2018-04-09T03:26:24.912Z,13.02
2018-04-09T03:28:52.304Z,12.89
2018-04-09T03:31:19.704Z,12.65
2018-04-09T03:33:47.083Z,12.64
2018-04-09T03:36:14.559Z,12.61
2018-04-09T03:38:41.947Z,12.60
2018-04-09T03:41:09.343Z,12.56
2018-04-09T03:43:36.736Z,12.55
2018-04-09T03:46:04.129Z,12.56
2018-04-09T03:48:31.518Z,12.49
2018-04-09T03:50:58.962Z,12.50
2018-04-09T03:53:26.364Z,12.56
2018-04-09T03:55:53.805Z,12.51
2018-04-09T03:58:21.245Z,12.40
2018-04-09T04:00:48.618Z,12.33
2018-04-09T04:03:16.077Z,12.16
2018-04-09T04:05:43.474Z,12.21
2018-04-09T04:08:10.879Z,12.30
2018-04-09T04:10:38.275Z,12.29
2018-04-09T04:13:05.728Z,12.39
2018-04-09T04:15:45.126Z,12.42
2018-04-09T04:18:24.266Z,12.53
2018-04-09T04:21:03.402Z,12.58
2018-04-09T04:23:30.830Z,12.66
2018-04-09T04:25:58.207Z,12.72
2018-04-09T04:28:25.617Z,12.81
2018-04-09T04:30:53.011Z,12.67
2018-04-09T04:33:20.403Z,12.64
2018-04-09T04:35:47.806Z,12.61
2018-04-09T04:38:15.194Z,12.49
2018-04-09T04:40:42.691Z,12.49
2018-04-09T04:43:10.083Z,12.48
2018-04-09T04:45:37.482Z,12.47
2018-04-09T04:48:04.948Z,12.39
2018-04-09T04:50:32.346Z,12.45
2018-04-09T04:52:59.746Z,12.31
2018-04-09T04:55:27.146Z,12.16
2018-04-09T04:57:54.581Z,12.17
2018-04-09T05:00:21.963Z,12.18
2018-04-09T05:02:49.357Z,12.15
2018-04-09T05:05:16.751Z,12.18
2018-04-09T05:07:44.149Z,12.33
2018-04-09T05:10:11.534Z,12.39
2018-04-09T05:12:38.958Z,12.55
2018-04-09T05:15:06.431Z,12.64
2018-04-09T05:17:33.835Z,12.75
2018-04-09T05:20:01.222Z,12.76
2018-04-09T05:22:28.626Z,12.83
2018-04-09T05:24:56.043Z,12.88
2018-04-09T05:27:23.447Z,12.98
2018-04-09T05:29:50.834Z,13.02
2018-04-09T05:32:18.237Z,13.01
2018-04-09T05:34:45.677Z,12.96
2018-04-09T05:37:13.130Z,13.12
2018-04-09T05:39:40.527Z,13.33
2018-04-09T05:42:07.938Z,13.59
2018-04-09T05:44:35.335Z,14.12
2018-04-09T05:47:02.763Z,14.82
2018-04-09T05:49:30.139Z,15.61
2018-04-09T05:51:57.562Z,16.43
2018-04-09T05:54:25.010Z,17.27
2018-04-09T05:56:52.414Z,18.04
2018-04-09T05:59:19.903Z,18.78
2018-04-09T06:01:47.196Z,19.33
2018-04-09T06:04:14.585Z,20.01
2018-04-09T06:06:42.294Z,20.61
2018-04-09T06:09:09.683Z,21.22
2018-04-09T06:11:37.107Z,21.85
2018-04-09T06:14:04.498Z,21.96
2018-04-09T06:16:31.923Z,22.24
2018-04-09T06:18:59.378Z,22.57
2018-04-09T06:21:26.831Z,22.76
2018-04-09T06:23:54.290Z,22.85
2018-04-09T06:26:21.690Z,22.89
2018-04-09T06:28:49.087Z,23.14
2018-04-09T06:31:16.554Z,23.79
2018-04-09T06:33:43.952Z,23.72
2018-04-09T06:36:11.344Z,23.71
2018-04-09T06:38:38.738Z,23.90
2018-04-09T06:41:06.134Z,24.25
2018-04-09T06:43:33.526Z,24.69
2018-04-09T06:46:00.967Z,24.72
2018-04-09T06:48:28.330Z,24.60
2018-04-09T06:50:55.719Z,25.25
2018-04-09T06:53:23.119Z,25.37
2018-04-09T06:55:50.510Z,25.92
2018-04-09T06:58:17.910Z,26.12
2018-04-09T07:00:45.302Z,26.46
2018-04-09T07:03:12.782Z,26.65
2018-04-09T07:05:40.171Z,27.07
2018-04-09T07:08:07.589Z,27.48
2018-04-09T07:10:35.045Z,27.19
2018-04-09T07:13:02.506Z,27.60
2018-04-09T07:15:29.958Z,28.35
2018-04-09T07:17:57.419Z,29.15
2018-04-09T07:20:24.871Z,29.57
2018-04-09T07:22:52.270Z,30.26
2018-04-09T07:25:19.667Z,30.79
2018-04-09T07:27:47.059Z,30.84
2018-04-09T07:30:14.450Z,31.25
2018-04-09T07:32:41.842Z,31.94
2018-04-09T07:35:09.230Z,32.05
2018-04-09T07:37:36.631Z,32.20
2018-04-09T07:40:04.023Z,32.67
2018-04-09T07:42:31.426Z,33.05
2018-04-09T07:44:58.826Z,32.80
2018-04-09T07:47:26.230Z,32.57
2018-04-09T07:49:53.618Z,32.60
2018-04-09T07:52:21.019Z,31.56
2018-04-09T07:54:48.413Z,31.00
2018-04-09T07:57:15.910Z,30.38
2018-04-09T07:59:43.299Z,29.74
2018-04-09T08:02:10.695Z,29.39
2018-04-09T08:04:38.085Z,29.79
2018-04-09T08:07:05.474Z,30.04
2018-04-09T08:09:32.892Z,30.17
2018-04-09T08:12:00.290Z,29.94
2018-04-09T08:14:27.680Z,30.83
2018-04-09T08:16:55.075Z,31.20
2018-04-09T08:19:22.499Z,31.89
2018-04-09T08:21:49.889Z,32.29
2018-04-09T08:24:17.334Z,32.81
2018-04-09T08:26:44.715Z,33.70
2018-04-09T08:29:12.119Z,34.69
2018-04-09T08:31:39.510Z,35.28
2018-04-09T08:34:06.912Z,35.26
2018-04-09T08:36:34.312Z,35.83
2018-04-09T08:39:01.709Z,35.99
2018-04-09T08:41:29.095Z,36.27
2018-04-09T08:43:56.577Z,36.84
2018-04-09T08:46:23.971Z,36.65
2018-04-09T08:48:51.389Z,36.87
2018-04-09T08:51:18.839Z,36.76
2018-04-09T08:53:46.239Z,36.87
2018-04-09T08:56:13.638Z,36.59
2018-04-09T08:58:41.039Z,35.59
2018-04-09T09:01:08.447Z,35.83
2018-04-09T09:03:35.923Z,35.76
2018-04-09T09:06:03.319Z,34.76
2018-04-09T09:08:30.740Z,34.87
2018-04-09T09:10:58.124Z,34.28
2018-04-09T09:13:25.546Z,34.28
2018-04-09T09:15:52.934Z,34.03
2018-04-09T09:18:20.331Z,33.60
2018-04-09T09:20:47.728Z,33.05
2018-04-09T09:23:15.128Z,33.22
2018-04-09T09:25:42.519Z,32.93
2018-04-09T09:28:09.911Z,32.68
2018-04-09T09:30:37.307Z,31.41
2018-04-09T09:33:04.703Z,30.47
2018-04-09T09:35:32.090Z,29.79
2018-04-09T09:37:59.478Z,29.87
2018-04-09T09:40:26.866Z,29.77
2018-04-09T09:42:54.266Z,29.50
2018-04-09T09:45:21.674Z,29.78
2018-04-09T09:47:49.075Z,29.06
2018-04-09T09:50:16.465Z,28.65
2018-04-09T09:52:43.914Z,28.90
2018-04-09T09:55:11.302Z,29.24
2018-04-09T09:57:38.703Z,28.71
2018-04-09T10:00:06.111Z,28.77
2018-04-09T10:02:33.502Z,28.94
2018-04-09T10:05:11.498Z,28.22
2018-04-09T10:07:38.959Z,27.26
2018-04-09T10:10:06.323Z,27.39
2018-04-09T10:12:33.746Z,26.86
2018-04-09T10:15:01.139Z,26.50
2018-04-09T10:17:28.538Z,26.32
2018-04-09T10:19:55.934Z,26.58
2018-04-09T10:22:23.333Z,27.01
2018-04-09T10:24:50.723Z,27.26
2018-04-09T10:27:18.179Z,27.21
2018-04-09T10:29:45.640Z,26.84
2018-04-09T10:32:13.030Z,26.94
2018-04-09T10:34:40.426Z,26.79
2018-04-09T10:37:07.858Z,26.65
2018-04-09T10:39:35.367Z,26.39
2018-04-09T10:42:02.759Z,26.56
2018-04-09T10:44:30.155Z,26.69
2018-04-09T10:46:57.549Z,26.09
2018-04-09T10:49:24.951Z,26.19
2018-04-09T10:51:52.451Z,25.89
2018-04-09T10:54:19.854Z,26.19
2018-04-09T10:56:47.243Z,26.63
2018-04-09T10:59:14.641Z,26.80
2018-04-09T11:01:42.086Z,26.44
2018-04-09T11:04:09.545Z,26.72
2018-04-09T11:06:36.873Z,27.18
2018-04-09T11:09:04.267Z,27.73
2018-04-09T11:11:31.663Z,27.38
2018-04-09T11:13:59.068Z,27.17
2018-04-09T11:16:26.450Z,27.24
2018-04-09T11:18:53.867Z,26.98
2018-04-09T11:21:21.263Z,26.97
2018-04-09T11:23:48.679Z,27.07
2018-04-09T11:26:16.139Z,26.52
2018-04-09T11:28:43.538Z,26.57
2018-04-09T11:31:10.950Z,26.59
2018-04-09T11:33:38.407Z,26.58
2018-04-09T11:36:05.802Z,26.26
2018-04-09T11:38:33.197Z,26.37
2018-04-09T11:41:00.700Z,26.49
2018-04-09T11:43:28.138Z,26.53
2018-04-09T11:45:55.525Z,26.40
2018-04-09T11:48:23.221Z,25.97
2018-04-09T11:50:50.727Z,25.84
2018-04-09T11:53:18.113Z,25.65
2018-04-09T11:55:45.544Z,25.49
2018-04-09T11:58:12.967Z,25.86
2018-04-09T12:00:40.364Z,25.85
2018-04-09T12:03:07.752Z,25.62
2018-04-09T12:05:35.148Z,25.91
2018-04-09T12:08:02.544Z,25.90
2018-04-09T12:10:30.465Z,25.92
2018-04-09T12:12:57.861Z,26.27
2018-04-09T12:15:25.298Z,26.21
2018-04-09T12:17:52.681Z,26.32
2018-04-09T12:20:20.099Z,26.24
2018-04-09T12:22:47.490Z,26.00
2018-04-09T12:25:14.892Z,26.16
2018-04-09T12:27:42.286Z,26.28
2018-04-09T12:30:09.685Z,26.06
2018-04-09T12:32:37.080Z,26.14
2018-04-09T12:35:04.518Z,26.48
2018-04-09T12:37:31.919Z,26.43
2018-04-09T12:39:59.308Z,26.40
2018-04-09T12:42:26.714Z,26.49
2018-04-09T12:44:54.124Z,26.25
2018-04-09T12:47:21.543Z,26.10
2018-04-09T12:49:48.989Z,26.08
2018-04-09T12:52:16.373Z,25.85
2018-04-09T12:54:43.790Z,25.87
2018-04-09T12:57:11.181Z,26.18
2018-04-09T12:59:38.655Z,26.31
2018-04-09T13:02:06.081Z,26.48
2018-04-09T13:04:33.480Z,26.59
2018-04-09T13:07:00.892Z,26.16
2018-04-09T13:09:28.348Z,26.18
2018-04-09T13:11:55.813Z,26.10
2018-04-09T13:14:23.252Z,26.14
2018-04-09T13:16:50.646Z,26.26
2018-04-09T13:19:18.046Z,26.39
2018-04-09T13:21:45.437Z,26.24
2018-04-09T13:24:12.834Z,25.87
2018-04-09T13:26:40.229Z,25.73
2018-04-09T13:29:07.705Z,25.62
2018-04-09T13:31:35.164Z,25.74
2018-04-09T13:34:02.568Z,25.52
2018-04-09T13:36:29.956Z,25.32
2018-04-09T13:38:57.811Z,25.43
2018-04-09T13:41:25.196Z,25.78
2018-04-09T13:43:52.648Z,25.67
2018-04-09T13:46:20.100Z,25.88
2018-04-09T13:48:47.519Z,25.84
2018-04-09T13:51:14.932Z,25.62
2018-04-09T13:53:42.398Z,25.58
2018-04-09T13:56:09.854Z,25.83
2018-04-09T13:58:37.248Z,25.85
2018-04-09T14:01:04.641Z,25.67
2018-04-09T14:03:32.036Z,25.54
2018-04-09T14:05:59.427Z,25.52
2018-04-09T14:08:26.836Z,25.53
2018-04-09T14:10:54.240Z,25.51
2018-04-09T14:13:21.624Z,25.48
2018-04-09T14:15:49.104Z,25.36
2018-04-09T14:18:16.510Z,25.14
2018-04-09T14:20:43.912Z,25.11
2018-04-09T14:23:11.372Z,24.98
2018-04-09T14:25:38.775Z,25.07
2018-04-09T14:28:06.176Z,25.17
2018-04-09T14:30:33.576Z,25.28
2018-04-09T14:33:01.056Z,25.08
2018-04-09T14:35:28.444Z,25.00
2018-04-09T14:37:55.837Z,25.01
2018-04-09T14:40:23.324Z,24.98
2018-04-09T14:42:50.714Z,25.18
2018-04-09T14:45:18.125Z,25.12
2018-04-09T14:47:45.517Z,25.17
2018-04-09T14:50:12.900Z,25.40
2018-04-09T14:52:40.288Z,25.59
2018-04-09T14:55:07.676Z,25.55
2018-04-09T14:57:35.060Z,25.05
2018-04-09T15:00:02.457Z,24.72
2018-04-09T15:02:29.853Z,24.64
2018-04-09T15:04:57.248Z,24.46
2018-04-09T15:07:24.646Z,24.19
2018-04-09T15:09:52.032Z,24.05
2018-04-09T15:12:19.460Z,23.99
2018-04-09T15:14:46.844Z,23.96
2018-04-09T15:17:14.229Z,23.69
2018-04-09T15:19:41.722Z,23.74
2018-04-09T15:22:09.108Z,23.70
2018-04-09T15:24:36.544Z,23.78
2018-04-09T15:27:04.001Z,23.65
2018-04-09T15:29:31.381Z,23.59
2018-04-09T15:31:58.784Z,23.59
2018-04-09T15:34:26.279Z,23.68
2018-04-09T15:36:53.656Z,23.68
2018-04-09T15:39:21.064Z,23.66
2018-04-09T15:41:48.440Z,23.61
2018-04-09T15:44:15.841Z,23.69
2018-04-09T15:46:43.241Z,23.55
2018-04-09T15:49:10.653Z,23.68
2018-04-09T15:51:38.045Z,23.69
2018-04-09T15:54:05.511Z,23.61
2018-04-09T15:56:32.968Z,23.51
2018-04-09T15:59:00.429Z,23.42
2018-04-09T16:01:27.905Z,23.53
2018-04-09T16:03:55.296Z,23.33
2018-04-09T16:06:22.701Z,23.43
2018-04-09T16:08:50.101Z,23.49
2018-04-09T16:11:17.512Z,23.53
2018-04-09T16:13:44.970Z,23.54
2018-04-09T16:16:12.429Z,23.73
2018-04-09T16:18:39.812Z,23.50
2018-04-09T16:21:07.206Z,23.21
2018-04-09T16:23:34.594Z,23.09
2018-04-09T16:26:01.987Z,23.08
2018-04-09T16:28:29.377Z,23.11
2018-04-09T16:30:56.772Z,23.08
2018-04-09T16:33:24.161Z,23.02
2018-04-09T16:35:51.558Z,23.11
2018-04-09T16:38:18.944Z,22.96
2018-04-09T16:40:46.343Z,22.96
2018-04-09T16:43:13.736Z,23.06
2018-04-09T16:45:41.133Z,22.96
2018-04-09T16:48:08.516Z,22.84
2018-04-09T16:50:35.906Z,22.76
2018-04-09T16:53:03.303Z,22.67
2018-04-09T16:55:30.708Z,22.61
2018-04-09T16:57:58.101Z,22.50
2018-04-09T17:00:25.517Z,22.43
2018-04-09T17:02:52.902Z,22.33
2018-04-09T17:05:20.300Z,22.32
2018-04-09T17:07:47.784Z,22.18
2018-04-09T17:10:15.178Z,22.12
2018-04-09T17:12:42.568Z,21.93
2018-04-09T17:15:09.967Z,21.84
2018-04-09T17:17:37.349Z,21.73
2018-04-09T17:20:04.748Z,21.78
2018-04-09T17:22:32.149Z,21.78
2018-04-09T17:24:59.595Z,21.75
2018-04-09T17:27:26.984Z,21.67
2018-04-09T17:29:54.393Z,21.68
2018-04-09T17:32:21.793Z,21.61
2018-04-09T17:34:49.180Z,21.44
2018-04-09T17:37:16.571Z,21.35
2018-04-09T17:39:43.961Z,21.32
2018-04-09T17:42:11.353Z,21.24
2018-04-09T17:44:38.774Z,21.22
2018-04-09T17:47:06.153Z,21.07
2018-04-09T17:49:33.576Z,21.18
2018-04-09T17:52:00.960Z,21.13
2018-04-09T17:54:28.372Z,21.08
2018-04-09T17:56:55.769Z,21.16
2018-04-09T17:59:23.148Z,21.18
2018-04-09T18:01:50.543Z,21.04
2018-04-09T18:04:17.990Z,21.06
2018-04-09T18:06:45.378Z,20.77
2018-04-09T18:09:12.771Z,20.88
2018-04-09T18:11:40.161Z,20.82
2018-04-09T18:14:07.592Z,20.77
2018-04-09T18:16:34.989Z,20.65
2018-04-09T18:19:02.464Z,20.53
2018-04-09T18:21:29.858Z,20.57
2018-04-09T18:23:57.245Z,20.51
2018-04-09T18:26:24.646Z,20.34
2018-04-09T18:28:52.053Z,20.12
2018-04-09T18:31:19.470Z,20.16
2018-04-09T18:33:46.865Z,19.99
2018-04-09T18:36:14.262Z,19.85
2018-04-09T18:38:41.657Z,19.84
2018-04-09T18:41:09.058Z,19.79
2018-04-09T18:43:36.454Z,19.82
2018-04-09T18:46:03.866Z,19.68
2018-04-09T18:48:31.336Z,19.62
2018-04-09T18:50:58.793Z,19.59
2018-04-09T18:53:26.196Z,19.52
2018-04-09T18:55:53.724Z,19.57
2018-04-09T18:58:21.115Z,19.52
2018-04-09T19:00:48.521Z,19.40
2018-04-09T19:03:15.977Z,19.45
2018-04-09T19:05:43.432Z,19.36
2018-04-09T19:08:10.889Z,19.37
2018-04-09T19:10:38.293Z,19.22
2018-04-09T19:13:05.711Z,19.22
2018-04-09T19:15:33.117Z,19.17
2018-04-09T19:18:00.498Z,19.12
2018-04-09T19:20:27.897Z,19.01
2018-04-09T19:22:55.290Z,19.12
2018-04-09T19:25:22.783Z,19.17
2018-04-09T19:27:50.240Z,19.15
2018-04-09T19:30:17.641Z,19.14
2018-04-09T19:32:45.063Z,19.17
2018-04-09T19:35:12.482Z,19.22
2018-04-09T19:37:45.530Z,19.21
2018-04-09T19:40:18.767Z,19.17
2018-04-09T19:42:46.247Z,19.10
2018-04-09T19:45:13.640Z,18.99
2018-04-09T19:47:41.244Z,18.91
2018-04-09T19:50:08.664Z,18.91
2018-04-09T19:52:36.182Z,18.69
2018-04-09T19:55:03.592Z,18.73
2018-04-09T19:57:31.205Z,18.71
2018-04-09T19:59:58.596Z,18.66
2018-04-09T20:02:25.998Z,18.63
2018-04-09T20:04:53.546Z,18.67
2018-04-09T20:07:21.098Z,18.70
2018-04-09T20:09:48.601Z,18.78
2018-04-09T20:12:16.029Z,18.73
2018-04-09T20:14:43.523Z,18.59
2018-04-09T20:17:11.012Z,18.64
2018-04-09T20:19:38.405Z,18.59
2018-04-09T20:22:05.969Z,18.61
2018-04-09T20:24:33.433Z,18.69
2018-04-09T20:27:00.825Z,18.70
2018-04-09T20:29:28.316Z,18.76
2018-04-09T20:31:55.700Z,18.66
2018-04-09T20:34:23.160Z,18.56
2018-04-09T20:36:50.554Z,18.43
2018-04-09T20:39:18.028Z,18.18
2018-04-09T20:41:45.417Z,18.17
2018-04-09T20:44:12.859Z,18.14
2018-04-09T20:46:40.292Z,18.27
2018-04-09T20:49:07.684Z,18.14
2018-04-09T20:51:35.077Z,18.14
2018-04-09T20:54:02.485Z,18.16
2018-04-09T20:56:29.880Z,18.03
2018-04-09T20:58:57.395Z,17.98
2018-04-09T21:01:24.792Z,17.91
2018-04-09T21:03:52.195Z,17.87
2018-04-09T21:06:19.603Z,17.74
2018-04-09T21:08:47.902Z,17.66
2018-04-09T21:11:15.400Z,17.69
2018-04-09T21:13:42.808Z,17.70
2018-04-09T21:16:10.316Z,17.73
2018-04-09T21:18:37.705Z,17.68
2018-04-09T21:21:05.143Z,17.60
2018-04-09T21:23:32.548Z,17.72
2018-04-09T21:25:59.944Z,17.56
2018-04-09T21:28:27.475Z,17.51
2018-04-09T21:30:54.894Z,17.36
2018-04-09T21:33:22.284Z,17.41
2018-04-09T21:35:49.690Z,17.47
2018-04-09T21:38:17.076Z,17.32
2018-04-09T21:40:44.481Z,17.27
2018-04-09T21:43:11.903Z,17.40
2018-04-09T21:45:39.386Z,17.31
2018-04-09T21:48:06.780Z,17.38
2018-04-09T21:50:34.176Z,17.29
2018-04-09T21:53:01.568Z,17.45
2018-04-09T21:55:28.968Z,17.49
2018-04-09T21:57:56.440Z,17.43
2018-04-09T22:00:23.871Z,17.35
2018-04-09T22:02:51.363Z,17.26
2018-04-09T22:05:18.776Z,17.17
2018-04-09T22:07:46.168Z,17.18
2018-04-09T22:10:13.552Z,17.13
2018-04-09T22:12:40.980Z,17.11
2018-04-09T22:15:08.685Z,16.98
2018-04-09T22:17:36.114Z,16.90
2018-04-09T22:20:03.505Z,16.86
2018-04-09T22:22:30.908Z,16.76
2018-04-09T22:24:58.296Z,16.78
2018-04-09T22:27:25.696Z,16.87
2018-04-09T22:29:53.137Z,16.76
2018-04-09T22:32:20.541Z,16.69
2018-04-09T22:34:47.928Z,16.69
2018-04-09T22:37:15.332Z,16.62
2018-04-09T22:39:42.752Z,16.61
2018-04-09T22:42:10.152Z,16.55
2018-04-09T22:44:37.547Z,16.56
2018-04-09T22:47:04.957Z,16.58
2018-04-09T22:49:32.381Z,16.57
2018-04-09T22:51:59.836Z,16.54
2018-04-09T22:54:27.235Z,16.47
2018-04-09T22:56:54.640Z,16.31
2018-04-09T22:59:22.040Z,16.29
2018-04-09T23:01:49.452Z,16.28
2018-04-09T23:04:16.849Z,16.23
2018-04-09T23:06:44.253Z,16.12
2018-04-09T23:09:11.645Z,16.06
2018-04-09T23:11:39.084Z,16.03
2018-04-09T23:14:06.537Z,15.96
2018-04-09T23:16:33.936Z,15.91
2018-04-09T23:19:01.353Z,15.86
2018-04-09T23:21:28.815Z,15.82
2018-04-09T23:23:56.208Z,15.86
2018-04-09T23:26:23.608Z,15.76
2018-04-09T23:28:51.006Z,15.73
2018-04-09T23:31:18.396Z,15.69
2018-04-09T23:33:45.797Z,15.65
2018-04-09T23:36:13.184Z,15.69
2018-04-09T23:38:40.598Z,15.64
2018-04-09T23:41:08.006Z,15.57
2018-04-09T23:43:35.407Z,15.47
2018-04-09T23:46:02.812Z,15.63
2018-04-09T23:48:30.217Z,15.84
2018-04-09T23:50:57.624Z,15.70
2018-04-09T23:53:25.025Z,15.59
2018-04-09T23:55:52.417Z,15.61
2018-04-09T23:58:19.892Z,15.62
